This is the latest recevied weather packets stored in our database for station/object CE3SUR-16. If no packets are shown the sender has not sent any weather packets the latest 10 day(s).
| Time | Temp. | Humidity | Pressure | Rain* | Wind** | Luminosity | Snow |
|---|---|---|---|---|---|---|---|
| 1777793924 | 15° C | 92% | 956.6 hPa | - | - | - | - |
| 1777792123 | 15.56° C | 91% | 956.7 hPa | - | - | - | - |
| 1777790323 | 15.56° C | 89% | 956.3 hPa | - | - | - | - |
| 1777788523 | 16.11° C | 88% | 956.4 hPa | - | - | - | - |
| 1777786722 | 16.11° C | 90% | 956.3 hPa | - | - | - | - |
| 1777785283 | 16.11° C | 89% | 956.5 hPa | - | - | - | - |
| 1777784924 | 16.11° C | 89% | 956.5 hPa | - | - | - | - |
| 1777783124 | 16.67° C | 87% | 956.8 hPa | - | - | - | - |
| 1777781324 | 17.22° C | 86% | 956.9 hPa | - | - | - | - |
| 1777779591 | 17.22° C | 83% | 957 hPa | - | - | - | - |
| 1777779524 | 17.22° C | 83% | 957 hPa | - | - | - | - |
| 1777777723 | 17.78° C | 81% | 956.9 hPa | - | - | - | - |
| 1777776314 | 18.33° C | 79% | 956.5 hPa | - | - | - | - |
| 1777775923 | 18.33° C | 79% | 956.5 hPa | - | - | - | - |
| 1777774122 | 18.33° C | 80% | 956.1 hPa | - | - | - | - |
| 1777772322 | 18.89° C | 78% | 956 hPa | - | - | - | - |
| 1777770522 | 19.44° C | 74% | 956.3 hPa | - | - | - | - |
| 1777768722 | 20° C | 73% | 956.5 hPa | - | - | - | - |
| 1777766997 | 20.56° C | 71% | 956.3 hPa | - | - | - | - |
| 1777766922 | 20.56° C | 71% | 956.3 hPa | - | - | - | - |
| 1777765120 | 21.11° C | 70% | 956 hPa | - | - | - | - |
| 1777763325 | 22.22° C | 67% | 955.5 hPa | - | - | - | - |
| 1777761525 | 22.78° C | 61% | 955.2 hPa | - | - | - | - |
| 1777759724 | 24.44° C | 55% | 954.8 hPa | - | - | - | - |
| 1777757924 | 26.11° C | 50% | 954.8 hPa | - | - | - | - |
* Rain since midnight (hover to see other rain measurements)
** Current wind speed in m/s (hover to see current wind gust speed)